createdAt,value
2022-12-29T00:00:06.663Z,10.40
2022-12-29T00:02:54.436Z,7.33
2022-12-29T00:05:40.731Z,6.63
2022-12-29T00:08:40.812Z,8.30
2022-12-29T00:11:28.434Z,8.57
2022-12-29T00:14:31.889Z,7.37
2022-12-29T00:17:18.433Z,5.83
2022-12-29T00:20:23.825Z,9.80
2022-12-29T00:23:28.243Z,9.20
2022-12-29T00:26:32.780Z,11.90
2022-12-29T00:29:37.213Z,7.47
2022-12-29T00:32:52.508Z,4.50
2022-12-29T00:35:41.296Z,5.90
2022-12-29T00:38:45.900Z,6.00
2022-12-29T00:41:52.225Z,7.57
2022-12-29T00:44:38.797Z,10.93
2022-12-29T00:47:25.200Z,6.43
2022-12-29T00:50:10.410Z,11.47
2022-12-29T00:52:57.958Z,7.73
2022-12-29T00:55:44.523Z,6.17
2022-12-29T00:58:30.632Z,8.73
2022-12-29T01:01:17.130Z,11.10
2022-12-29T01:04:04.907Z,6.73
2022-12-29T01:06:51.569Z,8.27
2022-12-29T01:09:57.422Z,7.50
2022-12-29T01:12:46.104Z,10.93
2022-12-29T01:15:32.727Z,7.73
2022-12-29T01:18:20.896Z,5.80
2022-12-29T01:21:07.996Z,8.93
2022-12-29T01:23:54.486Z,8.87
2022-12-29T01:26:43.467Z,5.73
2022-12-29T01:29:29.936Z,6.30
2022-12-29T01:32:16.193Z,4.83
2022-12-29T01:35:04.366Z,4.30
2022-12-29T01:37:50.616Z,5.97
2022-12-29T01:40:44.788Z,5.97
2022-12-29T01:43:42.447Z,4.30
2022-12-29T01:46:30.315Z,4.37
2022-12-29T01:49:18.190Z,6.80
2022-12-29T01:52:07.525Z,5.33
2022-12-29T01:54:56.235Z,2.77
2022-12-29T01:57:44.905Z,4.10
2022-12-29T02:00:32.898Z,4.93
2022-12-29T02:03:20.182Z,3.87
2022-12-29T02:06:10.626Z,3.77
2022-12-29T02:08:58.427Z,4.43
2022-12-29T02:11:44.855Z,3.40
2022-12-29T02:14:32.090Z,3.33
2022-12-29T02:17:25.675Z,3.70
2022-12-29T02:20:39.920Z,3.50
2022-12-29T02:23:48.236Z,6.07
2022-12-29T02:26:46.724Z,6.27
2022-12-29T02:29:47.572Z,5.80
2022-12-29T02:32:39.683Z,7.53
2022-12-29T02:35:29.860Z,6.77
2022-12-29T02:38:20.004Z,3.93
2022-12-29T02:41:08.160Z,5.60
2022-12-29T02:43:57.975Z,6.07
2022-12-29T02:46:46.942Z,4.90
2022-12-29T02:49:36.445Z,8.37
2022-12-29T02:52:25.571Z,3.33
2022-12-29T02:55:12.800Z,7.03
2022-12-29T02:58:18.602Z,7.33
2022-12-29T03:01:12.868Z,6.33
2022-12-29T03:04:14.663Z,5.20
2022-12-29T03:07:04.738Z,4.10
2022-12-29T03:09:54.646Z,4.07
2022-12-29T03:13:01.778Z,5.00
2022-12-29T03:16:05.257Z,6.27
2022-12-29T03:18:54.633Z,4.73
2022-12-29T03:21:59.418Z,3.70
2022-12-29T03:24:49.724Z,6.17
2022-12-29T03:27:37.552Z,8.97
2022-12-29T03:30:24.671Z,8.87
2022-12-29T03:33:12.788Z,5.33
2022-12-29T03:36:01.053Z,7.17
2022-12-29T03:38:50.641Z,5.43
2022-12-29T03:41:39.008Z,4.53
2022-12-29T03:44:33.666Z,5.50
2022-12-29T03:47:20.257Z,4.00
2022-12-29T03:50:06.772Z,4.03
2022-12-29T03:52:53.764Z,5.63
2022-12-29T03:55:39.933Z,3.70
2022-12-29T03:58:28.203Z,8.10
2022-12-29T04:01:14.934Z,6.73
2022-12-29T04:04:01.365Z,4.27
2022-12-29T04:06:47.431Z,6.10
2022-12-29T04:09:33.712Z,4.10
2022-12-29T04:12:20.807Z,5.30
2022-12-29T04:15:09.374Z,4.90
2022-12-29T04:17:55.714Z,4.43
2022-12-29T04:20:59.775Z,8.07
2022-12-29T04:23:45.910Z,4.97
2022-12-29T04:26:32.041Z,5.57
2022-12-29T04:29:18.309Z,9.17
2022-12-29T04:32:06.528Z,7.73
2022-12-29T04:34:53.665Z,5.83
2022-12-29T04:37:39.926Z,8.33
2022-12-29T04:40:26.080Z,5.73
2022-12-29T04:43:12.208Z,6.90
2022-12-29T04:45:58.640Z,10.67
2022-12-29T04:48:46.767Z,4.77
2022-12-29T04:51:33.275Z,6.67
2022-12-29T04:54:20.060Z,5.60
2022-12-29T04:57:06.583Z,6.03
2022-12-29T04:59:53.017Z,8.97
2022-12-29T05:02:40.119Z,8.77
2022-12-29T05:05:28.191Z,11.03
2022-12-29T05:08:14.672Z,6.43
2022-12-29T05:11:01.010Z,5.53
2022-12-29T05:13:47.378Z,6.27
2022-12-29T05:16:33.706Z,7.57
2022-12-29T05:19:20.216Z,10.67
2022-12-29T05:22:07.742Z,14.13
2022-12-29T05:24:54.095Z,6.90
2022-12-29T05:27:40.429Z,11.40
2022-12-29T05:30:27.005Z,10.03
2022-12-29T05:33:13.669Z,8.40
2022-12-29T05:36:05.459Z,8.80
2022-12-29T05:38:53.256Z,16.83
2022-12-29T05:41:39.567Z,12.40
2022-12-29T05:44:25.958Z,12.83
2022-12-29T05:47:12.350Z,11.40
2022-12-29T05:49:58.976Z,10.10
2022-12-29T05:52:45.159Z,8.73
2022-12-29T05:55:33.285Z,7.27
2022-12-29T05:58:20.102Z,8.70
2022-12-29T06:01:06.637Z,7.57
2022-12-29T06:03:53.081Z,7.77
2022-12-29T06:06:40.840Z,6.50
2022-12-29T06:09:27.446Z,6.40
2022-12-29T06:12:15.668Z,14.37
2022-12-29T06:15:02.184Z,14.53
2022-12-29T06:17:48.425Z,21.27
2022-12-29T06:20:34.637Z,15.43
2022-12-29T06:23:20.910Z,9.37
2022-12-29T06:26:07.554Z,11.30
2022-12-29T06:28:55.708Z,11.40
2022-12-29T06:31:42.336Z,9.40
2022-12-29T06:34:28.684Z,9.10
2022-12-29T06:37:15.830Z,5.97
2022-12-29T06:40:02.013Z,8.43
2022-12-29T06:42:48.207Z,8.47
2022-12-29T06:45:36.247Z,8.23
2022-12-29T06:48:22.672Z,10.07
2022-12-29T06:51:09.408Z,10.93
2022-12-29T06:53:56.071Z,14.03
2022-12-29T06:56:42.696Z,10.83
2022-12-29T06:59:28.777Z,17.77
2022-12-29T07:02:19.433Z,13.87
2022-12-29T07:05:06.209Z,14.23
2022-12-29T07:07:53.363Z,12.90
2022-12-29T07:10:39.872Z,11.27
2022-12-29T07:13:26.170Z,11.60
2022-12-29T07:16:12.774Z,11.87
2022-12-29T07:19:01.032Z,15.63
2022-12-29T07:21:47.993Z,9.73
2022-12-29T07:24:34.429Z,10.80
2022-12-29T07:27:20.655Z,11.33
2022-12-29T07:30:07.685Z,11.47
2022-12-29T07:32:54.217Z,12.07
2022-12-29T07:35:41.911Z,14.13
2022-12-29T07:38:28.476Z,11.60
2022-12-29T07:41:15.135Z,11.67
2022-12-29T07:44:01.697Z,10.57
2022-12-29T07:46:56.175Z,12.73
2022-12-29T07:49:44.445Z,11.23
2022-12-29T07:52:32.021Z,9.40
2022-12-29T07:55:18.723Z,12.63
2022-12-29T07:58:05.079Z,10.77
2022-12-29T08:00:55.139Z,12.83
2022-12-29T08:03:42.358Z,14.53
2022-12-29T08:06:30.227Z,12.13
2022-12-29T08:09:22.301Z,13.70
2022-12-29T08:12:10.512Z,12.87
2022-12-29T08:14:56.942Z,16.63
2022-12-29T08:17:43.393Z,10.67
2022-12-29T08:20:29.947Z,8.33
2022-12-29T08:23:16.158Z,11.30
2022-12-29T08:26:04.989Z,9.87
2022-12-29T08:28:51.410Z,9.37
2022-12-29T08:31:37.905Z,8.03
2022-12-29T08:34:24.638Z,7.07
2022-12-29T08:37:11.107Z,7.73
2022-12-29T08:39:58.853Z,8.83
2022-12-29T08:42:46.917Z,8.17
2022-12-29T08:45:33.627Z,7.33
2022-12-29T08:48:23.111Z,10.57
2022-12-29T08:51:10.560Z,10.07
2022-12-29T08:53:56.687Z,8.23
2022-12-29T08:56:43.318Z,5.33
2022-12-29T08:59:31.135Z,8.77
2022-12-29T09:02:23.720Z,8.63
2022-12-29T09:05:11.809Z,10.20
2022-12-29T09:07:58.355Z,8.53
2022-12-29T09:10:44.723Z,9.37
2022-12-29T09:13:30.923Z,6.77
2022-12-29T09:16:19.416Z,9.47
2022-12-29T09:19:06.142Z,9.23
2022-12-29T09:21:52.353Z,9.07
2022-12-29T09:24:38.929Z,7.63
2022-12-29T09:27:25.098Z,9.13
2022-12-29T09:30:12.756Z,7.80
2022-12-29T09:33:00.771Z,8.00
2022-12-29T09:35:47.971Z,5.67
2022-12-29T09:38:34.603Z,9.57
2022-12-29T09:41:23.272Z,7.23
2022-12-29T09:44:15.387Z,6.40
2022-12-29T09:47:02.621Z,7.00
2022-12-29T09:49:52.031Z,8.73
2022-12-29T09:52:39.122Z,8.93
2022-12-29T09:55:28.175Z,9.43
2022-12-29T09:58:16.353Z,6.20
2022-12-29T10:01:04.714Z,7.77
2022-12-29T10:03:53.089Z,9.30
2022-12-29T10:07:03.960Z,8.87
2022-12-29T10:09:55.730Z,10.97
2022-12-29T10:12:50.019Z,7.90
2022-12-29T10:15:41.504Z,7.90
2022-12-29T10:18:34.925Z,6.77
2022-12-29T10:21:27.033Z,7.53
2022-12-29T10:24:15.205Z,7.90
2022-12-29T10:27:01.675Z,6.77
2022-12-29T10:29:50.850Z,5.47
2022-12-29T10:32:39.270Z,8.30
2022-12-29T10:35:26.830Z,6.73
2022-12-29T10:38:16.750Z,4.43
2022-12-29T10:41:07.715Z,7.23
2022-12-29T10:43:55.459Z,5.87
2022-12-29T10:46:42.255Z,5.17
2022-12-29T10:49:29.416Z,19.67
2022-12-29T10:52:17.337Z,12.23
2022-12-29T10:55:05.322Z,6.37
2022-12-29T10:57:53.371Z,7.87
2022-12-29T11:00:39.483Z,6.93
2022-12-29T11:03:52.958Z,8.07
2022-12-29T11:06:39.013Z,6.27
2022-12-29T11:09:41.510Z,9.53
2022-12-29T11:12:29.800Z,8.23
2022-12-29T11:15:17.881Z,5.00
2022-12-29T11:18:04.267Z,6.80
2022-12-29T11:20:51.205Z,4.40
2022-12-29T11:23:38.356Z,6.00
2022-12-29T11:26:30.157Z,2.93
2022-12-29T11:29:26.056Z,6.67
2022-12-29T11:32:15.302Z,3.70
2022-12-29T11:35:02.814Z,4.40
2022-12-29T11:37:56.184Z,8.30
2022-12-29T11:40:42.488Z,6.13
2022-12-29T11:43:34.567Z,7.20
2022-12-29T11:46:22.390Z,3.43
2022-12-29T11:49:14.967Z,7.03
2022-12-29T11:52:01.786Z,6.60
2022-12-29T11:54:48.283Z,7.00
2022-12-29T11:57:35.690Z,8.23
2022-12-29T12:00:23.224Z,7.57
2022-12-29T12:03:12.337Z,8.03
2022-12-29T12:06:02.696Z,6.80
2022-12-29T12:08:52.703Z,7.70
2022-12-29T12:11:43.114Z,6.30
2022-12-29T12:14:31.717Z,6.13
2022-12-29T12:17:20.082Z,7.60
2022-12-29T12:20:09.441Z,8.17
2022-12-29T12:23:02.307Z,7.07
2022-12-29T12:25:53.660Z,7.13
2022-12-29T12:28:44.420Z,8.63
2022-12-29T12:31:40.287Z,10.87
2022-12-29T12:34:30.160Z,8.47
2022-12-29T12:37:31.214Z,10.63
2022-12-29T12:40:50.688Z,8.87
2022-12-29T12:43:44.003Z,9.77
2022-12-29T12:46:51.334Z,10.13
2022-12-29T12:50:04.388Z,7.33
2022-12-29T12:53:11.778Z,8.87
2022-12-29T12:56:07.968Z,7.73
2022-12-29T12:58:57.997Z,7.77
2022-12-29T13:01:50.756Z,8.57
2022-12-29T13:04:47.589Z,32.87
2022-12-29T13:07:39.735Z,31.10
2022-12-29T13:10:32.124Z,9.20
2022-12-29T13:13:29.511Z,6.87
2022-12-29T13:16:23.376Z,7.33
2022-12-29T13:19:13.170Z,7.73
2022-12-29T13:22:07.052Z,5.93
2022-12-29T13:24:58.430Z,10.23
2022-12-29T13:27:48.187Z,8.83
2022-12-29T13:30:36.449Z,11.80
2022-12-29T13:33:28.826Z,14.27
2022-12-29T13:36:20.707Z,8.00
2022-12-29T13:39:14.768Z,8.47
2022-12-29T13:42:04.730Z,14.03
2022-12-29T13:44:54.715Z,14.07
2022-12-29T13:47:43.023Z,9.87
2022-12-29T13:50:31.912Z,8.13
2022-12-29T13:53:21.557Z,9.63
2022-12-29T13:56:09.588Z,11.83
2022-12-29T13:58:58.527Z,8.33
2022-12-29T14:01:49.218Z,8.63
2022-12-29T14:04:36.797Z,9.60
2022-12-29T14:07:24.602Z,13.60
2022-12-29T14:10:27.949Z,16.17
2022-12-29T14:13:15.691Z,14.80
2022-12-29T14:16:02.808Z,19.50
2022-12-29T14:18:49.157Z,14.33
2022-12-29T14:21:36.213Z,14.03
2022-12-29T14:24:41.303Z,13.30
2022-12-29T14:27:48.590Z,11.60
2022-12-29T14:31:02.315Z,11.57
2022-12-29T14:34:17.356Z,15.43
2022-12-29T14:37:04.023Z,15.50
2022-12-29T14:39:51.623Z,13.40
2022-12-29T14:42:41.321Z,26.20
2022-12-29T14:45:29.617Z,16.87
2022-12-29T14:48:33.417Z,13.27
2022-12-29T14:51:21.302Z,12.37
2022-12-29T14:54:22.595Z,10.33
2022-12-29T14:57:13.250Z,21.93
2022-12-29T15:00:03.112Z,24.60
2022-12-29T15:02:51.798Z,22.77
2022-12-29T15:05:39.824Z,21.07
2022-12-29T15:08:27.889Z,14.70
2022-12-29T15:11:15.717Z,22.10
2022-12-29T15:14:03.559Z,25.43
2022-12-29T15:16:50.128Z,24.77
2022-12-29T15:19:37.806Z,25.00
2022-12-29T15:22:24.504Z,42.80
2022-12-29T15:25:16.843Z,31.67
2022-12-29T15:28:04.517Z,35.73
2022-12-29T15:30:57.409Z,30.47
2022-12-29T15:33:44.886Z,22.53
2022-12-29T15:36:38.853Z,23.17
2022-12-29T15:39:29.960Z,14.00
2022-12-29T15:42:24.879Z,21.50
2022-12-29T15:45:13.290Z,14.10
2022-12-29T15:48:01.442Z,19.30
2022-12-29T15:50:48.721Z,16.10
2022-12-29T15:53:35.469Z,29.23
2022-12-29T15:56:21.845Z,32.30
2022-12-29T15:59:24.171Z,30.23
2022-12-29T16:02:12.638Z,21.23
2022-12-29T16:05:17.073Z,69.67
2022-12-29T16:08:22.834Z,197.47
2022-12-29T16:11:16.928Z,131.60
2022-12-29T16:14:04.125Z,229.80
2022-12-29T16:16:51.491Z,207.10
2022-12-29T16:19:38.854Z,144.30
2022-12-29T16:22:29.027Z,57.63
2022-12-29T16:25:18.373Z,57.33
2022-12-29T16:28:16.052Z,49.00
2022-12-29T16:31:04.871Z,65.53
2022-12-29T16:33:52.020Z,49.73
2022-12-29T16:36:42.524Z,55.03
2022-12-29T16:39:32.287Z,82.50
2022-12-29T16:42:37.665Z,59.23
2022-12-29T16:45:48.422Z,62.83
2022-12-29T16:48:36.033Z,54.00
2022-12-29T16:51:27.155Z,48.40
2022-12-29T16:54:20.289Z,46.90
2022-12-29T16:57:09.319Z,55.43
2022-12-29T16:59:57.249Z,62.77
2022-12-29T17:02:46.113Z,61.57
2022-12-29T17:05:32.811Z,57.77
2022-12-29T17:08:23.965Z,57.87
2022-12-29T17:11:37.720Z,55.83
2022-12-29T17:14:29.704Z,62.33
2022-12-29T17:17:17.938Z,70.17
2022-12-29T17:20:06.125Z,73.33
2022-12-29T17:22:54.170Z,72.03
2022-12-29T17:25:40.590Z,76.17
2022-12-29T17:28:28.461Z,83.50
2022-12-29T17:31:16.120Z,56.40
2022-12-29T17:34:02.599Z,112.40
2022-12-29T17:36:48.869Z,77.93
2022-12-29T17:39:35.165Z,60.00
2022-12-29T17:42:21.573Z,64.70
2022-12-29T17:45:08.258Z,110.47
2022-12-29T17:47:56.325Z,180.00
2022-12-29T17:50:43.004Z,88.97
2022-12-29T17:53:30.396Z,45.77
2022-12-29T17:56:16.540Z,42.93
2022-12-29T17:59:02.947Z,80.13
2022-12-29T18:01:50.520Z,108.80
2022-12-29T18:04:38.414Z,86.23
2022-12-29T18:07:31.003Z,74.57
2022-12-29T18:10:21.032Z,68.37
2022-12-29T18:13:07.579Z,24.87
2022-12-29T18:15:54.551Z,32.30
2022-12-29T18:18:41.052Z,46.00
2022-12-29T18:21:28.525Z,36.30
2022-12-29T18:24:15.965Z,46.40
2022-12-29T18:27:03.567Z,43.90
2022-12-29T18:29:50.605Z,59.00
2022-12-29T18:32:37.105Z,53.23
2022-12-29T18:35:30.688Z,51.80
2022-12-29T18:38:18.563Z,50.33
2022-12-29T18:41:05.152Z,42.73
2022-12-29T18:43:51.502Z,47.13
2022-12-29T18:46:38.096Z,85.37
2022-12-29T18:49:25.547Z,110.07
2022-12-29T18:52:13.695Z,53.53
2022-12-29T18:55:01.727Z,31.77
2022-12-29T18:57:48.290Z,22.63
2022-12-29T19:00:34.699Z,34.07
2022-12-29T19:03:21.286Z,39.10
2022-12-29T19:06:08.275Z,91.57
2022-12-29T19:08:54.952Z,32.00
2022-12-29T19:11:42.965Z,27.60
2022-12-29T19:14:29.519Z,38.03
2022-12-29T19:17:15.881Z,95.10
2022-12-29T19:20:02.893Z,16.93
2022-12-29T19:22:49.665Z,193.57
2022-12-29T19:25:36.554Z,89.17
2022-12-29T19:28:26.158Z,85.53
2022-12-29T19:31:12.238Z,43.47
2022-12-29T19:33:58.811Z,40.13
2022-12-29T19:36:45.750Z,37.57
2022-12-29T19:39:32.449Z,38.73
2022-12-29T19:42:18.737Z,38.90
2022-12-29T19:45:06.729Z,34.73
2022-12-29T19:47:54.750Z,33.07
2022-12-29T19:50:41.338Z,21.37
2022-12-29T19:53:27.998Z,28.60
2022-12-29T19:56:14.931Z,30.53
2022-12-29T19:59:01.130Z,22.87
2022-12-29T20:01:48.907Z,23.93
2022-12-29T20:04:35.112Z,34.07
2022-12-29T20:07:22.140Z,28.40
2022-12-29T20:10:09.268Z,24.67
2022-12-29T20:12:55.661Z,21.03
2022-12-29T20:15:44.035Z,21.77
2022-12-29T20:18:32.131Z,21.67
2022-12-29T20:21:19.977Z,19.70
2022-12-29T20:24:06.672Z,24.20
2022-12-29T20:26:53.119Z,23.43
2022-12-29T20:29:40.914Z,29.23
2022-12-29T20:32:27.367Z,35.07
2022-12-29T20:35:15.110Z,32.07
2022-12-29T20:38:01.566Z,27.20
2022-12-29T20:40:47.951Z,21.93
2022-12-29T20:43:35.010Z,26.90
2022-12-29T20:46:25.221Z,16.67
2022-12-29T20:49:15.054Z,21.63
2022-12-29T20:52:06.738Z,26.17
2022-12-29T20:54:53.473Z,13.83
2022-12-29T20:58:14.079Z,26.23
2022-12-29T21:00:46.052Z,21.57
2022-12-29T21:03:32.582Z,22.67
2022-12-29T21:06:19.992Z,22.53
2022-12-29T21:09:07.764Z,19.67
2022-12-29T21:11:54.000Z,14.03
2022-12-29T21:14:45.420Z,15.10
2022-12-29T21:17:32.318Z,12.57
2022-12-29T21:20:20.738Z,18.17
2022-12-29T21:23:07.635Z,14.57
2022-12-29T21:25:56.046Z,11.97
2022-12-29T21:28:43.553Z,19.47
2022-12-29T21:31:30.986Z,11.83
2022-12-29T21:34:17.793Z,16.13
2022-12-29T21:37:04.479Z,13.70
2022-12-29T21:39:51.098Z,16.37
2022-12-29T21:42:38.917Z,14.23
2022-12-29T21:45:30.225Z,16.67
2022-12-29T21:48:24.138Z,11.53
2022-12-29T21:51:30.869Z,13.20
2022-12-29T21:54:35.336Z,11.77
2022-12-29T21:57:35.567Z,11.30
2022-12-29T22:00:40.895Z,21.57
2022-12-29T22:03:44.578Z,21.40
2022-12-29T22:06:48.288Z,15.20
2022-12-29T22:09:52.402Z,14.17
2022-12-29T22:12:56.814Z,12.00
2022-12-29T22:15:44.432Z,16.20
2022-12-29T22:18:30.938Z,9.43
2022-12-29T22:21:17.217Z,14.87
2022-12-29T22:24:03.419Z,14.73
2022-12-29T22:26:49.781Z,14.47
2022-12-29T22:29:35.966Z,14.87
2022-12-29T22:32:24.077Z,9.83
2022-12-29T22:35:11.228Z,12.37
2022-12-29T22:37:57.370Z,21.17
2022-12-29T22:40:43.656Z,13.87
2022-12-29T22:43:30.686Z,11.00
2022-12-29T22:46:16.951Z,11.73
2022-12-29T22:49:04.663Z,11.20
2022-12-29T22:51:51.591Z,13.93
2022-12-29T22:54:37.940Z,15.00
2022-12-29T22:57:24.377Z,12.00
2022-12-29T23:00:11.998Z,12.77
2022-12-29T23:02:58.292Z,18.17
2022-12-29T23:05:56.151Z,11.70
2022-12-29T23:08:43.245Z,7.37
2022-12-29T23:11:30.210Z,11.63
2022-12-29T23:14:17.409Z,13.17
2022-12-29T23:17:03.920Z,13.40
2022-12-29T23:19:50.501Z,9.77
2022-12-29T23:22:38.236Z,28.07
2022-12-29T23:25:24.593Z,28.57
2022-12-29T23:28:11.123Z,15.37
2022-12-29T23:30:57.414Z,13.00
2022-12-29T23:33:44.020Z,11.27
2022-12-29T23:36:31.214Z,13.03
2022-12-29T23:39:20.887Z,17.87
2022-12-29T23:42:07.147Z,15.53
2022-12-29T23:44:53.245Z,15.43
2022-12-29T23:47:39.799Z,10.83
2022-12-29T23:50:25.911Z,13.20
2022-12-29T23:53:12.967Z,12.00
2022-12-29T23:56:00.675Z,8.97
2022-12-29T23:58:47.470Z,8.97
